sensor_id;sensor_type;location;lat;lon;timestamp;P1;durP1;ratioP1;P2;durP2;ratioP2
28822;SDS011;15961;54.678;9.110;2023-07-02T00:02:13;9.02;;;3.72;;
28822;SDS011;15961;54.678;9.110;2023-07-02T00:04:38;17.40;;;4.38;;
28822;SDS011;15961;54.678;9.110;2023-07-02T00:07:04;12.13;;;4.18;;
28822;SDS011;15961;54.678;9.110;2023-07-02T00:09:29;11.60;;;4.07;;
28822;SDS011;15961;54.678;9.110;2023-07-02T00:11:55;16.58;;;4.30;;
28822;SDS011;15961;54.678;9.110;2023-07-02T00:14:20;24.05;;;4.93;;
28822;SDS011;15961;54.678;9.110;2023-07-02T00:16:46;12.38;;;5.65;;
28822;SDS011;15961;54.678;9.110;2023-07-02T00:19:13;13.50;;;4.05;;
28822;SDS011;15961;54.678;9.110;2023-07-02T00:21:39;16.55;;;4.72;;
28822;SDS011;15961;54.678;9.110;2023-07-02T00:24:05;14.73;;;3.95;;
28822;SDS011;15961;54.678;9.110;2023-07-02T00:26:31;28.00;;;5.00;;
28822;SDS011;15961;54.678;9.110;2023-07-02T00:28:56;20.20;;;4.40;;
28822;SDS011;15961;54.678;9.110;2023-07-02T00:31:22;19.02;;;5.75;;
28822;SDS011;15961;54.678;9.110;2023-07-02T00:33:48;22.83;;;5.22;;
28822;SDS011;15961;54.678;9.110;2023-07-02T00:36:13;22.30;;;5.53;;
28822;SDS011;15961;54.678;9.110;2023-07-02T00:38:41;21.10;;;5.90;;
28822;SDS011;15961;54.678;9.110;2023-07-02T00:41:08;20.10;;;4.55;;
28822;SDS011;15961;54.678;9.110;2023-07-02T00:43:35;17.55;;;4.68;;
28822;SDS011;15961;54.678;9.110;2023-07-02T00:46:00;21.40;;;4.80;;
28822;SDS011;15961;54.678;9.110;2023-07-02T00:48:25;13.98;;;5.25;;
28822;SDS011;15961;54.678;9.110;2023-07-02T00:50:51;24.35;;;6.10;;
28822;SDS011;15961;54.678;9.110;2023-07-02T00:53:16;17.02;;;4.93;;
28822;SDS011;15961;54.678;9.110;2023-07-02T00:55:42;12.45;;;3.90;;
28822;SDS011;15961;54.678;9.110;2023-07-02T00:58:07;16.10;;;4.53;;
28822;SDS011;15961;54.678;9.110;2023-07-02T01:00:33;16.15;;;6.53;;
28822;SDS011;15961;54.678;9.110;2023-07-02T01:02:58;16.05;;;4.68;;
28822;SDS011;15961;54.678;9.110;2023-07-02T01:05:28;15.40;;;3.92;;
28822;SDS011;15961;54.678;9.110;2023-07-02T01:08:00;17.65;;;5.13;;
28822;SDS011;15961;54.678;9.110;2023-07-02T01:10:32;17.60;;;5.55;;
28822;SDS011;15961;54.678;9.110;2023-07-02T01:13:02;15.32;;;4.53;;
28822;SDS011;15961;54.678;9.110;2023-07-02T01:15:31;24.00;;;7.22;;
28822;SDS011;15961;54.678;9.110;2023-07-02T01:17:57;18.13;;;4.63;;
28822;SDS011;15961;54.678;9.110;2023-07-02T01:20:22;20.42;;;4.40;;
28822;SDS011;15961;54.678;9.110;2023-07-02T01:22:48;14.40;;;4.60;;
28822;SDS011;15961;54.678;9.110;2023-07-02T01:25:16;13.85;;;4.88;;
28822;SDS011;15961;54.678;9.110;2023-07-02T01:27:42;16.90;;;4.60;;
28822;SDS011;15961;54.678;9.110;2023-07-02T01:30:07;14.90;;;5.13;;
28822;SDS011;15961;54.678;9.110;2023-07-02T01:32:34;20.10;;;5.32;;
28822;SDS011;15961;54.678;9.110;2023-07-02T01:34:59;19.92;;;5.45;;
28822;SDS011;15961;54.678;9.110;2023-07-02T01:37:26;18.42;;;4.88;;
28822;SDS011;15961;54.678;9.110;2023-07-02T01:39:51;15.48;;;5.03;;
28822;SDS011;15961;54.678;9.110;2023-07-02T01:42:17;20.75;;;5.57;;
28822;SDS011;15961;54.678;9.110;2023-07-02T01:44:44;23.80;;;6.57;;
28822;SDS011;15961;54.678;9.110;2023-07-02T01:47:10;12.45;;;4.68;;
28822;SDS011;15961;54.678;9.110;2023-07-02T01:49:35;16.30;;;5.20;;
28822;SDS011;15961;54.678;9.110;2023-07-02T01:52:02;17.23;;;4.88;;
28822;SDS011;15961;54.678;9.110;2023-07-02T01:54:28;20.98;;;4.85;;
28822;SDS011;15961;54.678;9.110;2023-07-02T01:56:54;17.13;;;5.03;;
28822;SDS011;15961;54.678;9.110;2023-07-02T01:59:20;15.20;;;5.15;;
28822;SDS011;15961;54.678;9.110;2023-07-02T02:01:45;17.50;;;5.40;;
28822;SDS011;15961;54.678;9.110;2023-07-02T02:04:11;16.88;;;4.15;;
28822;SDS011;15961;54.678;9.110;2023-07-02T02:06:37;14.82;;;5.18;;
28822;SDS011;15961;54.678;9.110;2023-07-02T02:09:03;12.18;;;4.88;;
28822;SDS011;15961;54.678;9.110;2023-07-02T02:11:29;17.60;;;4.40;;
28822;SDS011;15961;54.678;9.110;2023-07-02T02:13:58;15.75;;;4.38;;
28822;SDS011;15961;54.678;9.110;2023-07-02T02:16:23;17.75;;;4.15;;
28822;SDS011;15961;54.678;9.110;2023-07-02T02:18:49;17.13;;;4.50;;
28822;SDS011;15961;54.678;9.110;2023-07-02T02:21:18;16.38;;;4.38;;
28822;SDS011;15961;54.678;9.110;2023-07-02T02:23:44;19.23;;;5.80;;
28822;SDS011;15961;54.678;9.110;2023-07-02T02:26:09;13.13;;;4.82;;
28822;SDS011;15961;54.678;9.110;2023-07-02T02:28:35;15.38;;;6.65;;
28822;SDS011;15961;54.678;9.110;2023-07-02T02:31:00;10.95;;;4.10;;
28822;SDS011;15961;54.678;9.110;2023-07-02T02:33:26;11.70;;;4.20;;
28822;SDS011;15961;54.678;9.110;2023-07-02T02:35:51;18.90;;;4.10;;
28822;SDS011;15961;54.678;9.110;2023-07-02T02:38:16;17.58;;;4.45;;
28822;SDS011;15961;54.678;9.110;2023-07-02T02:40:42;17.92;;;5.07;;
28822;SDS011;15961;54.678;9.110;2023-07-02T02:43:07;12.88;;;4.20;;
28822;SDS011;15961;54.678;9.110;2023-07-02T02:45:32;15.82;;;6.03;;
28822;SDS011;15961;54.678;9.110;2023-07-02T02:47:58;11.52;;;4.35;;
28822;SDS011;15961;54.678;9.110;2023-07-02T02:50:23;14.85;;;4.47;;
28822;SDS011;15961;54.678;9.110;2023-07-02T02:52:49;14.48;;;4.65;;
28822;SDS011;15961;54.678;9.110;2023-07-02T02:55:14;15.57;;;4.25;;
28822;SDS011;15961;54.678;9.110;2023-07-02T02:57:39;21.00;;;4.65;;
28822;SDS011;15961;54.678;9.110;2023-07-02T03:00:05;18.40;;;4.65;;
28822;SDS011;15961;54.678;9.110;2023-07-02T03:02:31;15.07;;;4.35;;
28822;SDS011;15961;54.678;9.110;2023-07-02T03:04:57;14.13;;;4.13;;
28822;SDS011;15961;54.678;9.110;2023-07-02T03:07:27;20.02;;;4.25;;
28822;SDS011;15961;54.678;9.110;2023-07-02T03:09:56;18.48;;;4.22;;
28822;SDS011;15961;54.678;9.110;2023-07-02T03:12:21;18.45;;;4.22;;
28822;SDS011;15961;54.678;9.110;2023-07-02T03:14:47;11.30;;;4.72;;
28822;SDS011;15961;54.678;9.110;2023-07-02T03:17:16;12.65;;;4.47;;
28822;SDS011;15961;54.678;9.110;2023-07-02T03:19:41;20.80;;;5.20;;
28822;SDS011;15961;54.678;9.110;2023-07-02T03:22:07;18.27;;;5.75;;
28822;SDS011;15961;54.678;9.110;2023-07-02T03:24:32;22.85;;;4.80;;
28822;SDS011;15961;54.678;9.110;2023-07-02T03:26:58;15.85;;;4.78;;
28822;SDS011;15961;54.678;9.110;2023-07-02T03:29:23;18.52;;;5.75;;
28822;SDS011;15961;54.678;9.110;2023-07-02T03:31:48;17.30;;;4.55;;
28822;SDS011;15961;54.678;9.110;2023-07-02T03:34:14;14.02;;;5.35;;
28822;SDS011;15961;54.678;9.110;2023-07-02T03:36:39;16.98;;;5.15;;
28822;SDS011;15961;54.678;9.110;2023-07-02T03:39:05;18.50;;;4.72;;
28822;SDS011;15961;54.678;9.110;2023-07-02T03:41:30;18.67;;;5.47;;
28822;SDS011;15961;54.678;9.110;2023-07-02T03:43:56;14.65;;;5.28;;
28822;SDS011;15961;54.678;9.110;2023-07-02T03:46:21;17.05;;;5.93;;
28822;SDS011;15961;54.678;9.110;2023-07-02T03:48:47;14.20;;;4.35;;
28822;SDS011;15961;54.678;9.110;2023-07-02T03:51:12;13.63;;;3.55;;
28822;SDS011;15961;54.678;9.110;2023-07-02T03:53:39;12.68;;;4.32;;
28822;SDS011;15961;54.678;9.110;2023-07-02T03:56:04;12.85;;;4.25;;
28822;SDS011;15961;54.678;9.110;2023-07-02T03:58:30;12.43;;;5.38;;
28822;SDS011;15961;54.678;9.110;2023-07-02T04:00:55;20.50;;;4.82;;
28822;SDS011;15961;54.678;9.110;2023-07-02T04:03:20;15.30;;;5.15;;
28822;SDS011;15961;54.678;9.110;2023-07-02T04:05:46;21.40;;;4.95;;
28822;SDS011;15961;54.678;9.110;2023-07-02T04:08:11;18.80;;;5.13;;
28822;SDS011;15961;54.678;9.110;2023-07-02T04:10:36;19.80;;;4.93;;
28822;SDS011;15961;54.678;9.110;2023-07-02T04:13:02;15.15;;;5.13;;
28822;SDS011;15961;54.678;9.110;2023-07-02T04:15:27;18.75;;;5.78;;
28822;SDS011;15961;54.678;9.110;2023-07-02T04:17:53;19.45;;;5.38;;
28822;SDS011;15961;54.678;9.110;2023-07-02T04:20:21;23.70;;;5.88;;
28822;SDS011;15961;54.678;9.110;2023-07-02T04:22:46;12.13;;;5.57;;
28822;SDS011;15961;54.678;9.110;2023-07-02T04:25:12;23.40;;;5.72;;
28822;SDS011;15961;54.678;9.110;2023-07-02T04:27:42;24.50;;;7.40;;
28822;SDS011;15961;54.678;9.110;2023-07-02T04:30:08;23.20;;;6.63;;
28822;SDS011;15961;54.678;9.110;2023-07-02T04:32:35;17.23;;;5.05;;
28822;SDS011;15961;54.678;9.110;2023-07-02T04:35:00;15.05;;;4.95;;
28822;SDS011;15961;54.678;9.110;2023-07-02T04:37:26;20.50;;;6.50;;
28822;SDS011;15961;54.678;9.110;2023-07-02T04:39:52;24.20;;;5.78;;
28822;SDS011;15961;54.678;9.110;2023-07-02T04:42:18;18.95;;;4.82;;
28822;SDS011;15961;54.678;9.110;2023-07-02T04:44:43;20.20;;;5.65;;
28822;SDS011;15961;54.678;9.110;2023-07-02T04:47:08;19.00;;;6.03;;
28822;SDS011;15961;54.678;9.110;2023-07-02T04:49:34;21.95;;;6.15;;
28822;SDS011;15961;54.678;9.110;2023-07-02T04:51:59;18.63;;;5.05;;
28822;SDS011;15961;54.678;9.110;2023-07-02T04:54:24;20.67;;;5.75;;
28822;SDS011;15961;54.678;9.110;2023-07-02T04:56:50;17.67;;;4.85;;
28822;SDS011;15961;54.678;9.110;2023-07-02T04:59:16;16.15;;;6.22;;
28822;SDS011;15961;54.678;9.110;2023-07-02T05:01:41;12.07;;;4.40;;
28822;SDS011;15961;54.678;9.110;2023-07-02T05:04:09;22.60;;;5.07;;
28822;SDS011;15961;54.678;9.110;2023-07-02T05:06:35;23.15;;;5.57;;
28822;SDS011;15961;54.678;9.110;2023-07-02T05:09:00;13.95;;;4.93;;
28822;SDS011;15961;54.678;9.110;2023-07-02T05:11:25;18.50;;;5.40;;
28822;SDS011;15961;54.678;9.110;2023-07-02T05:13:51;14.60;;;4.60;;
28822;SDS011;15961;54.678;9.110;2023-07-02T05:16:16;14.73;;;5.47;;
28822;SDS011;15961;54.678;9.110;2023-07-02T05:18:41;14.55;;;5.30;;
28822;SDS011;15961;54.678;9.110;2023-07-02T05:21:07;14.15;;;4.55;;
28822;SDS011;15961;54.678;9.110;2023-07-02T05:23:32;14.25;;;5.30;;
28822;SDS011;15961;54.678;9.110;2023-07-02T05:25:57;16.17;;;6.15;;
28822;SDS011;15961;54.678;9.110;2023-07-02T05:28:23;17.67;;;6.43;;
28822;SDS011;15961;54.678;9.110;2023-07-02T05:30:49;14.98;;;5.50;;
28822;SDS011;15961;54.678;9.110;2023-07-02T05:33:15;19.92;;;5.63;;
28822;SDS011;15961;54.678;9.110;2023-07-02T05:35:40;23.75;;;6.15;;
28822;SDS011;15961;54.678;9.110;2023-07-02T05:38:06;17.13;;;6.40;;
28822;SDS011;15961;54.678;9.110;2023-07-02T05:40:31;29.27;;;5.60;;
28822;SDS011;15961;54.678;9.110;2023-07-02T05:42:56;19.90;;;7.35;;
28822;SDS011;15961;54.678;9.110;2023-07-02T05:45:22;18.33;;;5.00;;
28822;SDS011;15961;54.678;9.110;2023-07-02T05:47:48;19.33;;;5.07;;
28822;SDS011;15961;54.678;9.110;2023-07-02T05:50:14;15.38;;;5.93;;
28822;SDS011;15961;54.678;9.110;2023-07-02T05:52:39;12.35;;;5.07;;
28822;SDS011;15961;54.678;9.110;2023-07-02T05:55:04;18.77;;;5.20;;
28822;SDS011;15961;54.678;9.110;2023-07-02T05:57:30;13.10;;;5.65;;
28822;SDS011;15961;54.678;9.110;2023-07-02T05:59:55;20.73;;;5.20;;
28822;SDS011;15961;54.678;9.110;2023-07-02T06:02:21;16.55;;;5.07;;
28822;SDS011;15961;54.678;9.110;2023-07-02T06:04:46;18.05;;;5.30;;
28822;SDS011;15961;54.678;9.110;2023-07-02T06:07:12;21.83;;;7.00;;
28822;SDS011;15961;54.678;9.110;2023-07-02T06:09:37;16.83;;;5.35;;
28822;SDS011;15961;54.678;9.110;2023-07-02T06:12:02;17.35;;;4.50;;
28822;SDS011;15961;54.678;9.110;2023-07-02T06:14:28;16.77;;;4.57;;
28822;SDS011;15961;54.678;9.110;2023-07-02T06:16:53;14.93;;;4.03;;
28822;SDS011;15961;54.678;9.110;2023-07-02T06:19:22;11.45;;;3.25;;
28822;SDS011;15961;54.678;9.110;2023-07-02T06:21:47;14.90;;;5.18;;
28822;SDS011;15961;54.678;9.110;2023-07-02T06:24:13;14.45;;;3.92;;
28822;SDS011;15961;54.678;9.110;2023-07-02T06:26:38;14.48;;;4.07;;
28822;SDS011;15961;54.678;9.110;2023-07-02T06:29:03;16.15;;;4.13;;
28822;SDS011;15961;54.678;9.110;2023-07-02T06:31:29;17.50;;;4.28;;
28822;SDS011;15961;54.678;9.110;2023-07-02T06:33:54;20.38;;;4.55;;
28822;SDS011;15961;54.678;9.110;2023-07-02T06:36:19;13.32;;;5.05;;
28822;SDS011;15961;54.678;9.110;2023-07-02T06:38:45;13.32;;;4.30;;
28822;SDS011;15961;54.678;9.110;2023-07-02T06:41:10;12.45;;;5.25;;
28822;SDS011;15961;54.678;9.110;2023-07-02T06:43:36;19.10;;;5.00;;
28822;SDS011;15961;54.678;9.110;2023-07-02T06:46:01;10.63;;;3.65;;
28822;SDS011;15961;54.678;9.110;2023-07-02T06:48:26;14.07;;;3.40;;
28822;SDS011;15961;54.678;9.110;2023-07-02T06:50:52;15.63;;;4.00;;
28822;SDS011;15961;54.678;9.110;2023-07-02T06:53:17;11.48;;;3.55;;
28822;SDS011;15961;54.678;9.110;2023-07-02T06:55:43;12.00;;;4.05;;
28822;SDS011;15961;54.678;9.110;2023-07-02T06:58:08;11.38;;;3.95;;
28822;SDS011;15961;54.678;9.110;2023-07-02T07:00:34;14.57;;;3.95;;
28822;SDS011;15961;54.678;9.110;2023-07-02T07:03:02;15.63;;;4.60;;
28822;SDS011;15961;54.678;9.110;2023-07-02T07:05:31;13.15;;;3.92;;
28822;SDS011;15961;54.678;9.110;2023-07-02T07:07:57;12.35;;;3.45;;
28822;SDS011;15961;54.678;9.110;2023-07-02T07:10:23;9.00;;;3.40;;
28822;SDS011;15961;54.678;9.110;2023-07-02T07:12:48;16.75;;;3.45;;
28822;SDS011;15961;54.678;9.110;2023-07-02T07:15:14;9.40;;;2.70;;
28822;SDS011;15961;54.678;9.110;2023-07-02T07:17:39;13.63;;;3.03;;
28822;SDS011;15961;54.678;9.110;2023-07-02T07:20:04;14.25;;;3.45;;
28822;SDS011;15961;54.678;9.110;2023-07-02T07:22:30;19.42;;;4.13;;
28822;SDS011;15961;54.678;9.110;2023-07-02T07:24:56;10.98;;;3.75;;
28822;SDS011;15961;54.678;9.110;2023-07-02T07:27:21;15.77;;;3.55;;
28822;SDS011;15961;54.678;9.110;2023-07-02T07:29:46;11.93;;;3.35;;
28822;SDS011;15961;54.678;9.110;2023-07-02T07:32:12;9.70;;;3.20;;
28822;SDS011;15961;54.678;9.110;2023-07-02T07:34:37;10.88;;;3.20;;
28822;SDS011;15961;54.678;9.110;2023-07-02T07:37:02;15.00;;;3.55;;
28822;SDS011;15961;54.678;9.110;2023-07-02T07:39:28;13.20;;;3.90;;
28822;SDS011;15961;54.678;9.110;2023-07-02T07:41:53;12.68;;;3.67;;
28822;SDS011;15961;54.678;9.110;2023-07-02T07:44:19;15.80;;;4.03;;
28822;SDS011;15961;54.678;9.110;2023-07-02T07:46:44;10.63;;;3.17;;
28822;SDS011;15961;54.678;9.110;2023-07-02T07:49:09;15.60;;;3.53;;
28822;SDS011;15961;54.678;9.110;2023-07-02T07:51:35;14.93;;;4.53;;
28822;SDS011;15961;54.678;9.110;2023-07-02T07:54:03;11.75;;;3.42;;
28822;SDS011;15961;54.678;9.110;2023-07-02T07:56:28;8.15;;;3.05;;
28822;SDS011;15961;54.678;9.110;2023-07-02T07:58:53;12.38;;;3.50;;
28822;SDS011;15961;54.678;9.110;2023-07-02T08:01:19;12.95;;;3.33;;
28822;SDS011;15961;54.678;9.110;2023-07-02T08:03:45;18.48;;;3.85;;
28822;SDS011;15961;54.678;9.110;2023-07-02T08:06:10;11.98;;;3.38;;
28822;SDS011;15961;54.678;9.110;2023-07-02T08:08:36;13.70;;;3.38;;
28822;SDS011;15961;54.678;9.110;2023-07-02T08:11:01;9.40;;;2.50;;
28822;SDS011;15961;54.678;9.110;2023-07-02T08:13:27;13.23;;;2.95;;
28822;SDS011;15961;54.678;9.110;2023-07-02T08:15:52;9.80;;;2.28;;
28822;SDS011;15961;54.678;9.110;2023-07-02T08:18:17;9.27;;;2.67;;
28822;SDS011;15961;54.678;9.110;2023-07-02T08:20:43;7.28;;;2.97;;
28822;SDS011;15961;54.678;9.110;2023-07-02T08:23:08;10.98;;;2.85;;
28822;SDS011;15961;54.678;9.110;2023-07-02T08:25:33;14.40;;;3.05;;
28822;SDS011;15961;54.678;9.110;2023-07-02T08:27:59;17.42;;;3.10;;
28822;SDS011;15961;54.678;9.110;2023-07-02T08:30:24;11.57;;;2.88;;
28822;SDS011;15961;54.678;9.110;2023-07-02T08:32:49;14.05;;;2.70;;
28822;SDS011;15961;54.678;9.110;2023-07-02T08:35:15;16.13;;;2.47;;
28822;SDS011;15961;54.678;9.110;2023-07-02T08:37:40;10.52;;;2.25;;
28822;SDS011;15961;54.678;9.110;2023-07-02T08:40:05;5.85;;;2.25;;
28822;SDS011;15961;54.678;9.110;2023-07-02T08:42:32;14.35;;;2.67;;
28822;SDS011;15961;54.678;9.110;2023-07-02T08:44:58;8.60;;;2.58;;
28822;SDS011;15961;54.678;9.110;2023-07-02T08:47:24;12.55;;;2.13;;
28822;SDS011;15961;54.678;9.110;2023-07-02T08:49:49;9.50;;;2.78;;
28822;SDS011;15961;54.678;9.110;2023-07-02T08:52:15;6.90;;;2.55;;
28822;SDS011;15961;54.678;9.110;2023-07-02T08:54:40;7.25;;;2.65;;
28822;SDS011;15961;54.678;9.110;2023-07-02T08:57:07;8.95;;;2.67;;
28822;SDS011;15961;54.678;9.110;2023-07-02T08:59:35;7.75;;;2.15;;
28822;SDS011;15961;54.678;9.110;2023-07-02T09:02:00;8.85;;;2.65;;
28822;SDS011;15961;54.678;9.110;2023-07-02T09:04:26;8.73;;;2.50;;
28822;SDS011;15961;54.678;9.110;2023-07-02T09:07:02;8.95;;;2.70;;
28822;SDS011;15961;54.678;9.110;2023-07-02T09:09:31;11.18;;;2.30;;
28822;SDS011;15961;54.678;9.110;2023-07-02T09:11:57;14.35;;;3.10;;
28822;SDS011;15961;54.678;9.110;2023-07-02T09:14:31;7.97;;;2.28;;
28822;SDS011;15961;54.678;9.110;2023-07-02T09:17:07;8.15;;;2.42;;
28822;SDS011;15961;54.678;9.110;2023-07-02T09:19:36;9.80;;;2.30;;
28822;SDS011;15961;54.678;9.110;2023-07-02T09:22:02;6.88;;;1.92;;
28822;SDS011;15961;54.678;9.110;2023-07-02T09:24:28;7.38;;;1.70;;
28822;SDS011;15961;54.678;9.110;2023-07-02T09:27:00;9.90;;;2.42;;
28822;SDS011;15961;54.678;9.110;2023-07-02T09:29:30;10.55;;;2.40;;
28822;SDS011;15961;54.678;9.110;2023-07-02T09:32:00;12.07;;;2.53;;
28822;SDS011;15961;54.678;9.110;2023-07-02T09:34:28;6.35;;;2.35;;
28822;SDS011;15961;54.678;9.110;2023-07-02T09:36:54;9.32;;;3.10;;
28822;SDS011;15961;54.678;9.110;2023-07-02T09:39:24;9.18;;;2.47;;
28822;SDS011;15961;54.678;9.110;2023-07-02T09:41:51;12.90;;;2.40;;
28822;SDS011;15961;54.678;9.110;2023-07-02T09:44:16;7.63;;;2.30;;
28822;SDS011;15961;54.678;9.110;2023-07-02T09:46:44;8.35;;;2.35;;
28822;SDS011;15961;54.678;9.110;2023-07-02T09:49:17;13.20;;;2.85;;
28822;SDS011;15961;54.678;9.110;2023-07-02T09:51:45;12.40;;;2.70;;
28822;SDS011;15961;54.678;9.110;2023-07-02T09:54:11;12.30;;;2.92;;
28822;SDS011;15961;54.678;9.110;2023-07-02T09:56:36;11.77;;;2.47;;
28822;SDS011;15961;54.678;9.110;2023-07-02T09:59:02;8.05;;;2.40;;
28822;SDS011;15961;54.678;9.110;2023-07-02T10:01:27;6.45;;;2.10;;
28822;SDS011;15961;54.678;9.110;2023-07-02T10:03:53;9.27;;;2.60;;
28822;SDS011;15961;54.678;9.110;2023-07-02T10:06:18;6.95;;;2.42;;
28822;SDS011;15961;54.678;9.110;2023-07-02T10:08:53;14.90;;;2.65;;
28822;SDS011;15961;54.678;9.110;2023-07-02T10:11:19;13.15;;;2.20;;
28822;SDS011;15961;54.678;9.110;2023-07-02T10:13:44;6.93;;;2.35;;
28822;SDS011;15961;54.678;9.110;2023-07-02T10:16:10;13.38;;;2.83;;
28822;SDS011;15961;54.678;9.110;2023-07-02T10:18:35;10.60;;;2.53;;
28822;SDS011;15961;54.678;9.110;2023-07-02T10:21:12;11.05;;;2.03;;
28822;SDS011;15961;54.678;9.110;2023-07-02T10:23:39;8.38;;;1.88;;
28822;SDS011;15961;54.678;9.110;2023-07-02T10:28:39;13.20;;;2.40;;
28822;SDS011;15961;54.678;9.110;2023-07-02T10:31:05;7.78;;;2.25;;
28822;SDS011;15961;54.678;9.110;2023-07-02T10:33:43;12.43;;;2.35;;
28822;SDS011;15961;54.678;9.110;2023-07-02T10:36:16;6.90;;;3.00;;
28822;SDS011;15961;54.678;9.110;2023-07-02T10:38:42;12.07;;;2.85;;
28822;SDS011;15961;54.678;9.110;2023-07-02T10:41:08;9.95;;;2.05;;
28822;SDS011;15961;54.678;9.110;2023-07-02T10:43:33;11.32;;;2.72;;
28822;SDS011;15961;54.678;9.110;2023-07-02T10:45:59;12.55;;;2.60;;
28822;SDS011;15961;54.678;9.110;2023-07-02T10:48:27;6.47;;;2.42;;
28822;SDS011;15961;54.678;9.110;2023-07-02T10:50:53;8.90;;;1.92;;
28822;SDS011;15961;54.678;9.110;2023-07-02T10:53:18;11.93;;;2.67;;
28822;SDS011;15961;54.678;9.110;2023-07-02T10:55:44;7.30;;;2.13;;
28822;SDS011;15961;54.678;9.110;2023-07-02T10:58:10;11.95;;;3.38;;
28822;SDS011;15961;54.678;9.110;2023-07-02T11:00:43;13.05;;;2.33;;
28822;SDS011;15961;54.678;9.110;2023-07-02T11:03:22;12.27;;;3.65;;
28822;SDS011;15961;54.678;9.110;2023-07-02T11:05:49;8.63;;;2.42;;
28822;SDS011;15961;54.678;9.110;2023-07-02T11:08:14;6.05;;;2.22;;
28822;SDS011;15961;54.678;9.110;2023-07-02T11:10:40;14.85;;;3.05;;
28822;SDS011;15961;54.678;9.110;2023-07-02T11:13:16;9.05;;;3.45;;
28822;SDS011;15961;54.678;9.110;2023-07-02T11:15:42;8.55;;;2.30;;
28822;SDS011;15961;54.678;9.110;2023-07-02T11:18:17;7.05;;;2.20;;
28822;SDS011;15961;54.678;9.110;2023-07-02T11:20:46;8.15;;;2.80;;
28822;SDS011;15961;54.678;9.110;2023-07-02T11:23:18;10.15;;;2.55;;
28822;SDS011;15961;54.678;9.110;2023-07-02T11:25:54;10.65;;;2.50;;
28822;SDS011;15961;54.678;9.110;2023-07-02T11:28:20;11.50;;;2.78;;
28822;SDS011;15961;54.678;9.110;2023-07-02T11:30:45;11.85;;;3.22;;
28822;SDS011;15961;54.678;9.110;2023-07-02T11:33:11;10.32;;;2.50;;
28822;SDS011;15961;54.678;9.110;2023-07-02T11:35:36;14.18;;;2.60;;
28822;SDS011;15961;54.678;9.110;2023-07-02T11:38:01;12.48;;;2.45;;
28822;SDS011;15961;54.678;9.110;2023-07-02T11:40:27;9.85;;;2.58;;
28822;SDS011;15961;54.678;9.110;2023-07-02T11:42:52;7.93;;;2.20;;
28822;SDS011;15961;54.678;9.110;2023-07-02T11:45:18;8.32;;;2.20;;
28822;SDS011;15961;54.678;9.110;2023-07-02T11:47:43;7.30;;;1.85;;
28822;SDS011;15961;54.678;9.110;2023-07-02T11:50:08;10.80;;;2.20;;
28822;SDS011;15961;54.678;9.110;2023-07-02T11:52:35;4.88;;;2.10;;
28822;SDS011;15961;54.678;9.110;2023-07-02T11:55:00;10.70;;;2.25;;
28822;SDS011;15961;54.678;9.110;2023-07-02T11:57:25;7.10;;;1.98;;
28822;SDS011;15961;54.678;9.110;2023-07-02T11:59:51;11.05;;;2.45;;
28822;SDS011;15961;54.678;9.110;2023-07-02T12:02:17;9.00;;;2.08;;
28822;SDS011;15961;54.678;9.110;2023-07-02T12:04:42;6.38;;;2.22;;
28822;SDS011;15961;54.678;9.110;2023-07-02T12:07:08;7.45;;;2.22;;
28822;SDS011;15961;54.678;9.110;2023-07-02T12:09:33;6.30;;;1.92;;
28822;SDS011;15961;54.678;9.110;2023-07-02T12:11:59;10.00;;;2.80;;
28822;SDS011;15961;54.678;9.110;2023-07-02T12:14:24;9.43;;;2.22;;
28822;SDS011;15961;54.678;9.110;2023-07-02T12:16:50;12.73;;;2.03;;
28822;SDS011;15961;54.678;9.110;2023-07-02T12:19:15;9.43;;;2.30;;
28822;SDS011;15961;54.678;9.110;2023-07-02T12:21:40;6.60;;;2.00;;
28822;SDS011;15961;54.678;9.110;2023-07-02T12:24:06;5.78;;;1.92;;
28822;SDS011;15961;54.678;9.110;2023-07-02T12:26:34;9.52;;;2.35;;
28822;SDS011;15961;54.678;9.110;2023-07-02T12:29:00;10.20;;;2.90;;
28822;SDS011;15961;54.678;9.110;2023-07-02T12:31:26;8.27;;;2.10;;
28822;SDS011;15961;54.678;9.110;2023-07-02T12:33:51;8.48;;;2.42;;
28822;SDS011;15961;54.678;9.110;2023-07-02T12:36:16;8.85;;;2.50;;
28822;SDS011;15961;54.678;9.110;2023-07-02T12:38:42;9.75;;;2.13;;
28822;SDS011;15961;54.678;9.110;2023-07-02T12:41:07;9.43;;;2.65;;
28822;SDS011;15961;54.678;9.110;2023-07-02T12:43:32;4.13;;;1.83;;
28822;SDS011;15961;54.678;9.110;2023-07-02T12:45:58;7.10;;;3.67;;
28822;SDS011;15961;54.678;9.110;2023-07-02T12:48:23;7.65;;;2.03;;
28822;SDS011;15961;54.678;9.110;2023-07-02T12:50:55;12.25;;;2.58;;
28822;SDS011;15961;54.678;9.110;2023-07-02T12:53:21;10.77;;;2.28;;
28822;SDS011;15961;54.678;9.110;2023-07-02T12:55:47;9.27;;;2.65;;
28822;SDS011;15961;54.678;9.110;2023-07-02T12:58:12;10.80;;;2.65;;
28822;SDS011;15961;54.678;9.110;2023-07-02T13:00:38;10.75;;;2.60;;
28822;SDS011;15961;54.678;9.110;2023-07-02T13:03:03;11.30;;;2.40;;
28822;SDS011;15961;54.678;9.110;2023-07-02T13:05:28;11.60;;;4.10;;
28822;SDS011;15961;54.678;9.110;2023-07-02T13:07:54;10.77;;;2.58;;
28822;SDS011;15961;54.678;9.110;2023-07-02T13:10:19;14.98;;;2.60;;
28822;SDS011;15961;54.678;9.110;2023-07-02T13:12:44;8.60;;;1.98;;
28822;SDS011;15961;54.678;9.110;2023-07-02T13:15:10;17.45;;;2.28;;
28822;SDS011;15961;54.678;9.110;2023-07-02T13:17:37;9.18;;;2.08;;
28822;SDS011;15961;54.678;9.110;2023-07-02T13:20:02;8.15;;;1.98;;
28822;SDS011;15961;54.678;9.110;2023-07-02T13:22:29;9.93;;;2.35;;
28822;SDS011;15961;54.678;9.110;2023-07-02T13:24:54;8.15;;;2.20;;
28822;SDS011;15961;54.678;9.110;2023-07-02T13:27:19;10.18;;;2.40;;
28822;SDS011;15961;54.678;9.110;2023-07-02T13:29:45;12.73;;;2.55;;
28822;SDS011;15961;54.678;9.110;2023-07-02T13:32:10;12.85;;;3.22;;
28822;SDS011;15961;54.678;9.110;2023-07-02T13:34:36;13.23;;;3.00;;
28822;SDS011;15961;54.678;9.110;2023-07-02T13:37:01;8.10;;;2.03;;
28822;SDS011;15961;54.678;9.110;2023-07-02T13:39:28;10.88;;;3.28;;
28822;SDS011;15961;54.678;9.110;2023-07-02T13:41:53;14.27;;;2.80;;
28822;SDS011;15961;54.678;9.110;2023-07-02T13:44:19;10.95;;;2.78;;
28822;SDS011;15961;54.678;9.110;2023-07-02T13:46:44;13.55;;;3.30;;
28822;SDS011;15961;54.678;9.110;2023-07-02T13:49:10;15.85;;;2.92;;
28822;SDS011;15961;54.678;9.110;2023-07-02T13:51:35;18.55;;;3.35;;
28822;SDS011;15961;54.678;9.110;2023-07-02T13:54:01;12.55;;;2.80;;
28822;SDS011;15961;54.678;9.110;2023-07-02T13:56:26;16.65;;;3.28;;
28822;SDS011;15961;54.678;9.110;2023-07-02T14:01:20;9.80;;;2.70;;
28822;SDS011;15961;54.678;9.110;2023-07-02T14:03:45;12.75;;;3.55;;
28822;SDS011;15961;54.678;9.110;2023-07-02T14:06:11;12.70;;;2.85;;
28822;SDS011;15961;54.678;9.110;2023-07-02T14:08:36;7.15;;;2.83;;
28822;SDS011;15961;54.678;9.110;2023-07-02T14:11:01;12.63;;;3.50;;
28822;SDS011;15961;54.678;9.110;2023-07-02T14:13:27;10.90;;;3.00;;
28822;SDS011;15961;54.678;9.110;2023-07-02T14:15:52;12.32;;;3.53;;
28822;SDS011;15961;54.678;9.110;2023-07-02T14:18:17;14.05;;;3.72;;
28822;SDS011;15961;54.678;9.110;2023-07-02T14:20:43;13.70;;;5.25;;
28822;SDS011;15961;54.678;9.110;2023-07-02T14:23:08;13.38;;;4.18;;
28822;SDS011;15961;54.678;9.110;2023-07-02T14:25:34;9.52;;;3.70;;
28822;SDS011;15961;54.678;9.110;2023-07-02T14:27:59;6.68;;;2.85;;
28822;SDS011;15961;54.678;9.110;2023-07-02T14:30:24;13.25;;;3.17;;
28822;SDS011;15961;54.678;9.110;2023-07-02T14:32:50;10.90;;;3.08;;
28822;SDS011;15961;54.678;9.110;2023-07-02T14:35:15;13.85;;;3.40;;
28822;SDS011;15961;54.678;9.110;2023-07-02T14:37:40;9.93;;;3.75;;